createdAt,value
2022-12-15T00:00:11.808Z,36.58
2022-12-15T00:02:58.130Z,38.10
2022-12-15T00:05:43.531Z,35.42
2022-12-15T00:08:35.533Z,36.38
2022-12-15T00:11:21.949Z,42.50
2022-12-15T00:14:07.204Z,38.97
2022-12-15T00:16:52.862Z,37.08
2022-12-15T00:19:38.280Z,38.83
2022-12-15T00:22:26.270Z,40.35
2022-12-15T00:25:11.762Z,40.50
2022-12-15T00:27:58.331Z,42.65
2022-12-15T00:30:45.883Z,38.97
2022-12-15T00:33:35.785Z,44.85
2022-12-15T00:36:21.387Z,40.33
2022-12-15T00:38:48.352Z,41.05
2022-12-15T00:41:20.087Z,42.92
2022-12-15T00:43:50.103Z,41.92
2022-12-15T00:46:35.425Z,42.40
2022-12-15T00:49:03.806Z,41.08
2022-12-15T00:51:50.497Z,42.55
2022-12-15T00:54:37.191Z,43.80
2022-12-15T00:57:24.968Z,38.67
2022-12-15T01:00:18.270Z,43.20
2022-12-15T01:03:04.104Z,44.40
2022-12-15T01:05:49.514Z,44.08
2022-12-15T01:08:35.115Z,40.13
2022-12-15T01:11:20.662Z,41.42
2022-12-15T01:14:06.085Z,40.10
2022-12-15T01:16:52.493Z,42.88
2022-12-15T01:19:42.970Z,43.20
2022-12-15T01:22:10.891Z,39.95
2022-12-15T01:24:37.573Z,45.75
2022-12-15T01:27:04.310Z,41.30
2022-12-15T01:29:31.075Z,43.70
2022-12-15T01:31:59.113Z,48.93
2022-12-15T01:34:25.957Z,39.92
2022-12-15T01:36:54.228Z,45.08
2022-12-15T01:39:20.956Z,44.80
2022-12-15T01:41:51.200Z,45.17
2022-12-15T01:44:21.360Z,44.22
2022-12-15T01:46:55.875Z,46.83
2022-12-15T01:49:27.916Z,40.50
2022-12-15T01:52:03.135Z,41.03
2022-12-15T01:54:43.434Z,43.90
2022-12-15T01:57:14.718Z,47.60
2022-12-15T01:59:50.749Z,48.20
2022-12-15T02:02:21.820Z,47.40
2022-12-15T02:04:51.929Z,49.97
2022-12-15T02:07:19.374Z,47.03
2022-12-15T02:09:48.329Z,46.05
2022-12-15T02:12:20.819Z,48.05
2022-12-15T02:14:51.335Z,47.92
2022-12-15T02:17:52.361Z,49.40
2022-12-15T02:20:52.489Z,45.95
2022-12-15T02:23:40.781Z,49.42
2022-12-15T02:26:31.175Z,50.72
2022-12-15T02:29:27.522Z,48.17
2022-12-15T02:32:07.646Z,45.47
2022-12-15T02:34:48.092Z,50.58
2022-12-15T02:37:20.077Z,48.65
2022-12-15T02:39:48.149Z,50.90
2022-12-15T02:42:14.958Z,51.65
2022-12-15T02:44:53.951Z,50.67
2022-12-15T02:47:54.830Z,48.42
2022-12-15T02:50:47.578Z,43.40
2022-12-15T02:53:39.401Z,52.47
2022-12-15T02:56:13.936Z,45.85
2022-12-15T02:59:03.606Z,47.22
2022-12-15T03:01:40.128Z,46.38
2022-12-15T03:04:09.321Z,50.13
2022-12-15T03:06:36.411Z,49.80
2022-12-15T03:09:03.615Z,53.20
2022-12-15T03:11:30.922Z,54.28
2022-12-15T03:13:57.853Z,54.83
2022-12-15T03:16:24.742Z,48.50
2022-12-15T03:18:52.698Z,51.78
2022-12-15T03:21:19.652Z,49.97
2022-12-15T03:23:46.447Z,50.45
2022-12-15T03:26:13.203Z,53.80
2022-12-15T03:28:39.873Z,50.53
2022-12-15T03:31:10.228Z,52.80
2022-12-15T03:33:36.975Z,52.58
2022-12-15T03:36:07.256Z,55.47
2022-12-15T03:38:34.004Z,52.08
2022-12-15T03:41:00.643Z,50.53
2022-12-15T03:43:30.238Z,58.88
2022-12-15T03:45:57.345Z,51.33
2022-12-15T03:48:24.548Z,55.70
2022-12-15T03:50:51.718Z,55.35
2022-12-15T03:53:18.581Z,49.30
2022-12-15T03:55:46.506Z,51.80
2022-12-15T03:58:13.233Z,54.85
2022-12-15T04:00:39.976Z,55.53
2022-12-15T04:03:06.847Z,52.03
2022-12-15T04:05:34.789Z,53.72
2022-12-15T04:08:02.795Z,55.15
2022-12-15T04:10:34.780Z,57.33
2022-12-15T04:13:04.976Z,52.95
2022-12-15T04:15:32.446Z,55.15
2022-12-15T04:18:00.690Z,55.88
2022-12-15T04:20:27.453Z,53.78
2022-12-15T04:22:54.441Z,58.20
2022-12-15T04:25:43.096Z,57.75
2022-12-15T04:28:30.090Z,54.70
2022-12-15T04:31:33.153Z,55.78
2022-12-15T04:34:22.518Z,52.17
2022-12-15T04:37:11.268Z,52.17
2022-12-15T04:40:00.199Z,54.05
2022-12-15T04:45:32.446Z,55.70
2022-12-15T04:48:18.489Z,54.00
2022-12-15T04:51:04.096Z,53.40
2022-12-15T04:53:49.838Z,57.13
2022-12-15T04:56:35.443Z,52.05
2022-12-15T04:59:20.794Z,52.58
2022-12-15T05:02:06.723Z,56.05
2022-12-15T05:04:54.711Z,51.35
2022-12-15T05:07:44.030Z,50.92
2022-12-15T05:10:30.161Z,55.40
2022-12-15T05:13:26.444Z,55.72
2022-12-15T05:16:12.187Z,48.83
2022-12-15T05:18:57.406Z,51.08
2022-12-15T05:21:43.020Z,50.35
2022-12-15T05:24:28.789Z,53.58
2022-12-15T05:27:14.149Z,54.60
2022-12-15T05:29:59.894Z,47.95
2022-12-15T05:32:26.790Z,54.25
2022-12-15T05:34:53.539Z,47.10
2022-12-15T05:37:20.386Z,55.50
2022-12-15T05:39:48.367Z,52.47
2022-12-15T05:42:17.477Z,48.63
2022-12-15T05:44:44.222Z,51.33
2022-12-15T05:47:12.342Z,57.30
2022-12-15T05:49:39.104Z,58.40
2022-12-15T05:52:09.070Z,56.73
2022-12-15T05:54:35.892Z,49.50
2022-12-15T05:57:02.584Z,57.23
2022-12-15T05:59:29.308Z,51.67
2022-12-15T06:01:57.284Z,49.13
2022-12-15T06:04:24.313Z,55.15
2022-12-15T06:06:51.046Z,54.25
2022-12-15T06:09:17.772Z,54.63
2022-12-15T06:11:44.762Z,53.47
2022-12-15T06:14:11.415Z,57.30
2022-12-15T06:16:50.211Z,57.45
2022-12-15T06:19:18.185Z,55.58
2022-12-15T06:21:44.914Z,56.47
2022-12-15T06:24:11.606Z,58.33
2022-12-15T06:26:40.106Z,67.63
2022-12-15T06:29:09.039Z,62.25
2022-12-15T06:31:37.052Z,55.10
2022-12-15T06:34:06.311Z,53.85
2022-12-15T06:36:34.649Z,55.10
2022-12-15T06:39:04.264Z,59.53
2022-12-15T06:41:32.481Z,52.65
2022-12-15T06:44:01.200Z,49.97
2022-12-15T06:46:30.207Z,51.65
2022-12-15T06:48:57.723Z,60.45
2022-12-15T06:51:25.444Z,55.58
2022-12-15T06:56:34.403Z,58.70
2022-12-15T06:59:03.414Z,51.08
2022-12-15T07:01:32.158Z,57.55
2022-12-15T07:04:02.666Z,59.92
2022-12-15T07:06:36.316Z,53.40
2022-12-15T07:09:05.324Z,66.07
2022-12-15T07:11:34.152Z,60.33
2022-12-15T07:14:01.056Z,54.45
2022-12-15T07:16:30.562Z,54.03
2022-12-15T07:18:57.454Z,58.70
2022-12-15T07:21:26.267Z,55.60
2022-12-15T07:23:56.808Z,62.50
2022-12-15T07:26:24.801Z,69.43
2022-12-15T07:28:53.582Z,58.80
2022-12-15T07:31:21.675Z,55.53
2022-12-15T07:33:48.803Z,53.55
2022-12-15T07:36:15.882Z,61.22
2022-12-15T07:38:43.245Z,55.53
2022-12-15T07:41:10.434Z,49.90
2022-12-15T07:43:39.266Z,54.20
2022-12-15T07:46:06.832Z,49.60
2022-12-15T07:48:33.787Z,54.67
2022-12-15T07:51:10.958Z,48.20
2022-12-15T07:53:39.845Z,54.15
2022-12-15T07:56:09.339Z,52.55
2022-12-15T07:58:38.252Z,56.08
2022-12-15T08:01:07.990Z,50.65
2022-12-15T08:03:36.132Z,50.53
2022-12-15T08:06:05.337Z,51.60
2022-12-15T08:08:33.049Z,48.03
2022-12-15T08:11:04.846Z,51.60
2022-12-15T08:14:01.398Z,49.03
2022-12-15T08:16:20.042Z,47.80
2022-12-15T08:18:46.888Z,45.55
2022-12-15T08:21:14.814Z,49.92
2022-12-15T08:23:41.580Z,57.78
2022-12-15T08:26:11.412Z,50.40
2022-12-15T08:28:39.908Z,46.75
2022-12-15T08:31:09.407Z,49.60
2022-12-15T08:33:37.521Z,52.00
2022-12-15T08:36:07.473Z,45.00
2022-12-15T08:38:35.794Z,49.92
2022-12-15T08:43:48.088Z,46.33
2022-12-15T08:46:25.672Z,44.97
2022-12-15T08:48:53.279Z,44.25
2022-12-15T08:51:21.209Z,44.00
2022-12-15T08:54:02.164Z,44.30
2022-12-15T08:56:29.959Z,45.30
2022-12-15T08:59:02.820Z,42.75
2022-12-15T09:01:40.647Z,45.78
2022-12-15T09:04:08.031Z,44.00
2022-12-15T09:06:36.958Z,42.08
2022-12-15T09:09:09.216Z,43.13
2022-12-15T09:11:37.155Z,41.33
2022-12-15T09:14:08.576Z,38.03
2022-12-15T09:16:35.511Z,44.03
2022-12-15T09:19:10.236Z,47.60
2022-12-15T09:21:41.393Z,43.00
2022-12-15T09:24:14.737Z,40.50
2022-12-15T09:26:52.987Z,39.05
2022-12-15T09:29:25.962Z,37.90
2022-12-15T09:32:01.358Z,43.20
2022-12-15T09:34:32.167Z,39.65
2022-12-15T09:37:00.282Z,41.88
2022-12-15T09:39:29.272Z,40.15
2022-12-15T09:42:00.424Z,39.63
2022-12-15T09:44:35.428Z,43.88
2022-12-15T09:47:07.902Z,41.35
2022-12-15T09:50:16.001Z,49.35
2022-12-15T09:53:01.356Z,41.20
2022-12-15T09:55:32.860Z,47.88
2022-12-15T09:58:18.032Z,37.40
2022-12-15T10:01:00.234Z,43.75
2022-12-15T10:04:08.238Z,50.05
2022-12-15T10:06:54.973Z,42.10
2022-12-15T10:09:28.452Z,38.88
2022-12-15T10:12:07.794Z,49.45
2022-12-15T10:14:53.835Z,43.70
2022-12-15T10:17:50.361Z,42.15
2022-12-15T10:20:25.155Z,44.05
2022-12-15T10:22:58.077Z,45.65
2022-12-15T10:25:31.714Z,44.53
2022-12-15T10:28:37.984Z,44.75
2022-12-15T10:31:29.143Z,42.78
2022-12-15T10:34:26.314Z,46.33
2022-12-15T10:37:06.181Z,44.60
2022-12-15T10:39:50.166Z,44.72
2022-12-15T10:42:24.220Z,47.55
2022-12-15T10:45:05.443Z,42.88
2022-12-15T10:47:33.732Z,40.15
2022-12-15T10:50:25.276Z,43.00
2022-12-15T10:52:58.258Z,42.78
2022-12-15T10:55:38.392Z,43.00
2022-12-15T10:58:32.335Z,41.45
2022-12-15T11:01:22.316Z,50.13
2022-12-15T11:06:38.274Z,72.78
2022-12-15T11:09:36.726Z,41.53
2022-12-15T11:12:50.721Z,40.85
2022-12-15T11:15:42.118Z,39.70
2022-12-15T11:18:22.497Z,41.53
2022-12-15T11:21:08.997Z,39.20
2022-12-15T11:24:16.000Z,38.35
2022-12-15T11:26:51.003Z,43.45
2022-12-15T11:29:46.578Z,37.45
2022-12-15T11:32:23.950Z,38.60
2022-12-15T11:34:58.643Z,36.65
2022-12-15T11:37:41.316Z,37.78
2022-12-15T11:40:36.185Z,40.35
2022-12-15T11:43:42.042Z,38.75
2022-12-15T11:46:28.685Z,38.25
2022-12-15T11:49:14.483Z,42.83
2022-12-15T11:52:08.889Z,36.70
2022-12-15T11:55:15.826Z,38.55
2022-12-15T11:58:19.799Z,37.90
2022-12-15T12:01:07.647Z,39.47
2022-12-15T12:04:00.255Z,41.42
2022-12-15T12:06:48.011Z,37.22
2022-12-15T12:09:37.900Z,38.80
2022-12-15T12:12:21.824Z,39.38
2022-12-15T12:15:16.805Z,40.22
2022-12-15T12:17:52.643Z,40.83
2022-12-15T12:20:25.622Z,46.17
2022-12-15T12:23:23.036Z,41.90
2022-12-15T12:26:20.024Z,42.63
2022-12-15T12:29:24.749Z,44.55
2022-12-15T12:32:04.860Z,41.47
2022-12-15T12:34:53.973Z,46.35
2022-12-15T12:38:03.203Z,43.13
2022-12-15T12:40:55.587Z,43.10
2022-12-15T12:43:35.528Z,48.03
2022-12-15T12:46:24.673Z,50.78
2022-12-15T12:49:36.285Z,50.30
2022-12-15T12:52:05.929Z,72.85
2022-12-15T12:54:33.235Z,45.13
2022-12-15T12:57:22.568Z,42.92
2022-12-15T12:59:51.934Z,51.50
2022-12-15T13:02:29.758Z,54.33
2022-12-15T13:05:22.865Z,58.05
2022-12-15T13:08:16.176Z,50.92
2022-12-15T13:10:50.774Z,59.42
2022-12-15T13:13:36.198Z,53.90
2022-12-15T13:16:06.348Z,56.95
2022-12-15T13:19:03.614Z,48.72
2022-12-15T13:21:45.078Z,51.67
2022-12-15T13:24:37.205Z,49.00
2022-12-15T13:27:11.129Z,57.53
2022-12-15T13:30:17.759Z,54.22
2022-12-15T13:32:55.913Z,52.85
2022-12-15T13:35:31.480Z,52.58
2022-12-15T13:38:07.571Z,52.75
2022-12-15T13:40:41.109Z,46.80
2022-12-15T13:43:32.025Z,54.10
2022-12-15T13:46:15.289Z,47.88
2022-12-15T13:48:53.460Z,51.15
2022-12-15T13:51:32.033Z,51.40
2022-12-15T13:54:20.152Z,46.33
2022-12-15T13:57:02.977Z,45.67
2022-12-15T14:00:29.436Z,51.13
2022-12-15T14:03:13.396Z,57.45
2022-12-15T14:08:38.624Z,53.80
2022-12-15T14:11:53.856Z,54.83
2022-12-15T14:19:05.451Z,56.25
2022-12-15T14:22:18.237Z,55.40
2022-12-15T14:28:07.706Z,52.92
2022-12-15T14:30:38.118Z,63.40
2022-12-15T14:33:16.943Z,60.63
2022-12-15T14:35:50.102Z,65.68
2022-12-15T14:38:41.307Z,58.40
2022-12-15T14:41:22.260Z,61.33
2022-12-15T14:44:37.937Z,63.75
2022-12-15T14:46:48.967Z,69.88
2022-12-15T14:49:30.594Z,65.28
2022-12-15T14:52:06.949Z,58.38
2022-12-15T14:54:52.445Z,60.30
2022-12-15T14:57:53.274Z,66.38
2022-12-15T15:00:35.609Z,63.45
2022-12-15T15:03:19.723Z,69.68
2022-12-15T15:06:00.196Z,61.97
2022-12-15T15:08:51.112Z,67.72
2022-12-15T15:11:24.405Z,67.35
2022-12-15T15:13:56.782Z,61.58
2022-12-15T15:16:24.301Z,67.00
2022-12-15T15:18:55.473Z,65.55
2022-12-15T15:24:56.634Z,68.57
2022-12-15T15:27:42.365Z,69.28
2022-12-15T15:30:21.575Z,63.97
2022-12-15T15:35:33.938Z,67.05
2022-12-15T15:38:30.940Z,67.43
2022-12-15T15:41:23.351Z,78.97
2022-12-15T15:43:50.155Z,72.18
2022-12-15T15:46:20.651Z,68.40
2022-12-15T15:48:58.952Z,69.38
2022-12-15T15:51:27.355Z,67.03
2022-12-15T15:53:58.801Z,73.57
2022-12-15T15:56:27.503Z,69.40
2022-12-15T15:58:54.413Z,71.13
2022-12-15T16:01:21.303Z,70.72
2022-12-15T16:03:52.663Z,71.07
2022-12-15T16:06:21.882Z,69.65
2022-12-15T16:08:52.029Z,68.43
2022-12-15T16:11:22.178Z,71.53
2022-12-15T16:13:49.015Z,66.32
2022-12-15T16:16:22.082Z,70.13
2022-12-15T16:18:50.143Z,73.60
2022-12-15T16:21:17.919Z,92.88
2022-12-15T16:23:47.509Z,76.88
2022-12-15T16:26:17.276Z,79.18
2022-12-15T16:28:48.326Z,73.55
2022-12-15T16:31:27.183Z,65.80
2022-12-15T16:33:54.186Z,62.97
2022-12-15T16:36:22.532Z,69.05
2022-12-15T16:38:50.721Z,66.18
2022-12-15T16:41:18.336Z,69.95
2022-12-15T16:46:15.998Z,68.07
2022-12-15T16:51:37.082Z,72.35
2022-12-15T16:54:05.693Z,71.00
2022-12-15T16:56:33.078Z,73.65
2022-12-15T16:59:31.545Z,72.88
2022-12-15T17:01:51.081Z,78.60
2022-12-15T17:04:19.310Z,75.88
2022-12-15T17:06:46.271Z,80.85
2022-12-15T17:09:22.912Z,66.28
2022-12-15T17:11:50.616Z,73.88
2022-12-15T17:16:45.123Z,71.95
2022-12-15T17:19:16.155Z,64.88
2022-12-15T17:21:49.407Z,62.78
2022-12-15T17:24:18.742Z,64.47
2022-12-15T17:26:45.668Z,65.82
2022-12-15T17:29:23.426Z,58.00
2022-12-15T17:31:50.744Z,60.45
2022-12-15T17:34:28.467Z,62.20
2022-12-15T17:37:04.430Z,61.35
2022-12-15T17:39:34.031Z,56.40
2022-12-15T17:42:02.080Z,60.50
2022-12-15T17:44:34.483Z,60.33
2022-12-15T17:47:04.363Z,64.35
2022-12-15T17:49:35.485Z,62.08
2022-12-15T17:52:07.894Z,67.57
2022-12-15T17:54:35.578Z,61.10
2022-12-15T17:59:36.457Z,58.72
2022-12-15T18:02:03.303Z,56.70
2022-12-15T18:04:30.203Z,62.28
2022-12-15T18:07:01.537Z,61.33
2022-12-15T18:09:29.972Z,58.88
2022-12-15T18:11:57.010Z,68.55
2022-12-15T18:14:31.304Z,64.25
2022-12-15T18:16:58.049Z,63.97
2022-12-15T18:19:27.972Z,62.30
2022-12-15T18:21:58.550Z,61.65
2022-12-15T18:24:26.947Z,67.57
2022-12-15T18:26:54.630Z,65.18
2022-12-15T18:31:49.750Z,66.40
2022-12-15T18:34:18.739Z,66.32
2022-12-15T18:36:45.544Z,58.47
2022-12-15T18:39:21.906Z,56.90
2022-12-15T18:41:57.703Z,65.45
2022-12-15T18:44:26.642Z,65.55
2022-12-15T18:46:55.221Z,62.10
2022-12-15T18:49:23.319Z,67.85
2022-12-15T18:54:25.324Z,58.60
2022-12-15T18:56:53.110Z,64.57
2022-12-15T18:59:22.725Z,65.70
2022-12-15T19:01:49.805Z,83.60
2022-12-15T19:06:45.109Z,83.28
2022-12-15T19:09:19.170Z,71.28
2022-12-15T19:12:09.598Z,68.47
2022-12-15T19:14:42.916Z,66.25
2022-12-15T19:17:37.769Z,72.60
2022-12-15T19:20:32.829Z,57.90
2022-12-15T19:22:59.784Z,63.88
2022-12-15T19:25:28.671Z,79.72
2022-12-15T19:27:59.174Z,68.20
2022-12-15T19:30:41.697Z,72.13
2022-12-15T19:33:09.999Z,67.65
2022-12-15T19:38:04.999Z,65.55
2022-12-15T19:40:34.360Z,70.20
2022-12-15T19:43:02.161Z,64.60
2022-12-15T19:45:31.251Z,69.43
2022-12-15T19:47:59.670Z,69.45
2022-12-15T19:50:36.233Z,66.82
2022-12-15T19:53:11.274Z,67.57
2022-12-15T19:55:39.024Z,64.38
2022-12-15T20:00:44.496Z,58.58
2022-12-15T20:03:11.479Z,68.55
2022-12-15T20:05:38.531Z,74.07
2022-12-15T20:08:05.713Z,74.15
2022-12-15T20:10:32.896Z,74.53
2022-12-15T20:13:01.096Z,69.30
2022-12-15T20:15:29.815Z,73.00
2022-12-15T20:17:58.381Z,79.57
2022-12-15T20:20:27.963Z,71.32
2022-12-15T20:22:59.796Z,74.65
2022-12-15T20:25:30.360Z,70.28
2022-12-15T20:27:57.781Z,76.15
2022-12-15T20:30:29.832Z,70.47
2022-12-15T20:32:56.777Z,64.38
2022-12-15T20:35:27.108Z,69.15
2022-12-15T20:37:55.366Z,74.38
2022-12-15T20:40:28.436Z,78.72
2022-12-15T20:42:57.148Z,60.33
2022-12-15T20:45:26.724Z,67.53
2022-12-15T20:47:57.009Z,73.25
2022-12-15T20:50:40.983Z,66.25
2022-12-15T20:53:21.681Z,70.00
2022-12-15T20:55:49.729Z,61.28
2022-12-15T20:58:17.763Z,68.03
2022-12-15T21:00:45.782Z,69.60
2022-12-15T21:03:19.649Z,67.70
2022-12-15T21:05:47.633Z,49.92
2022-12-15T21:08:25.505Z,64.43
2022-12-15T21:10:58.628Z,67.78
2022-12-15T21:13:27.905Z,65.25
2022-12-15T21:15:54.905Z,67.38
2022-12-15T21:21:24.564Z,59.58
2022-12-15T21:23:51.567Z,54.50
2022-12-15T21:26:21.869Z,56.40
2022-12-15T21:28:54.031Z,58.53
2022-12-15T21:31:21.841Z,58.03
2022-12-15T21:33:48.724Z,59.35
2022-12-15T21:36:21.020Z,54.25
2022-12-15T21:38:50.896Z,62.30
2022-12-15T21:41:22.774Z,57.42
2022-12-15T21:43:50.007Z,61.33
2022-12-15T21:46:27.864Z,57.17
2022-12-15T21:49:18.292Z,60.22
2022-12-15T21:51:50.565Z,50.42
2022-12-15T21:54:30.484Z,59.88
2022-12-15T21:56:58.273Z,53.03
2022-12-15T21:59:27.734Z,49.15
2022-12-15T22:01:56.144Z,51.30
2022-12-15T22:04:34.390Z,54.65
2022-12-15T22:07:01.978Z,51.90
2022-12-15T22:11:56.569Z,59.45
2022-12-15T22:14:33.955Z,60.08
2022-12-15T22:17:02.221Z,57.40
2022-12-15T22:19:29.104Z,55.85
2022-12-15T22:21:56.966Z,66.63
2022-12-15T22:24:23.671Z,58.22
2022-12-15T22:26:50.558Z,54.88
2022-12-15T22:29:19.260Z,59.80
2022-12-15T22:31:47.249Z,66.93
2022-12-15T22:34:16.491Z,54.75
2022-12-15T22:36:45.207Z,52.50
2022-12-15T22:39:12.220Z,62.60
2022-12-15T22:41:41.378Z,61.17
2022-12-15T22:44:21.157Z,62.67
2022-12-15T22:46:49.855Z,56.13
2022-12-15T22:49:27.870Z,65.40
2022-12-15T22:51:54.998Z,57.17
2022-12-15T22:54:24.174Z,53.67
2022-12-15T22:56:55.498Z,56.70
2022-12-15T22:59:32.554Z,51.13
2022-12-15T23:02:02.580Z,60.80
2022-12-15T23:04:30.418Z,60.40
2022-12-15T23:06:59.179Z,58.10
2022-12-15T23:09:26.063Z,62.50
2022-12-15T23:11:52.881Z,63.80
2022-12-15T23:14:45.043Z,71.05
2022-12-15T23:17:12.768Z,53.83
2022-12-15T23:22:11.142Z,59.80
2022-12-15T23:24:37.855Z,58.72
2022-12-15T23:27:04.980Z,50.77
2022-12-15T23:29:32.918Z,58.42
2022-12-15T23:31:59.686Z,52.92
2022-12-15T23:34:26.437Z,61.10
2022-12-15T23:36:53.190Z,50.47
2022-12-15T23:39:20.085Z,66.03
2022-12-15T23:41:46.736Z,61.50
2022-12-15T23:44:13.452Z,61.15
2022-12-15T23:46:40.224Z,54.83
2022-12-15T23:49:07.183Z,55.53
2022-12-15T23:51:33.859Z,57.72
2022-12-15T23:54:01.274Z,53.80
2022-12-15T23:56:27.959Z,71.85
2022-12-15T23:58:56.826Z,63.30
